Time;durP1;ratioP1;P1;durP2;ratioP2;P2;SDS_P1;SDS_P2;PMS_P1;PMS_P2;Temp;Humidity;BMP_temperature;BMP_pressure;BME280_temperature;BME280_humidity;BME280_pressure;Samples;Min_cycle;Max_cycle;Signal;HPM_P1;HPM_P2
2022/06/24 00:01:26;;;;;;;2.60;2.40;;;26.20;60.80;;;;;;5094843;28;20032;-52
2022/06/24 00:03:52;;;;;;;2.83;2.63;;;25.60;65.50;;;;;;5094878;28;20074;-51
2022/06/24 00:06:18;;;;;;;3.35;2.50;;;25.50;56.80;;;;;;5094760;28;20032;-54
2022/06/24 00:08:52;;;;;;;2.50;2.30;;;25.80;55.70;;;;;;5093023;28;20093;-53
2022/06/24 00:11:26;;;;;;;3.55;2.47;;;25.90;57.40;;;;;;5094672;28;20030;-52
2022/06/24 00:14:01;;;;;;;3.17;2.97;;;25.80;56.00;;;;;;5094612;28;20490;-54
2022/06/24 00:16:27;;;;;;;3.45;2.47;;;25.40;87.70;;;;;;5094684;28;20021;-55
2022/06/24 00:19:11;;;;;;;2.65;2.45;;;26.00;87.90;;;;;;5094449;28;20073;-54
2022/06/24 00:21:37;;;;;;;3.67;2.75;;;25.80;88.00;;;;;;5094483;28;20405;-55
2022/06/24 00:24:03;;;;;;;2.78;2.58;;;26.00;88.50;;;;;;5094487;28;20078;-54
2022/06/24 00:26:42;;;;;;;3.15;2.70;;;25.70;55.90;;;;;;5094250;28;20027;-51
2022/06/24 00:29:08;;;;;;;3.03;2.28;;;;;;;;;;5094205;28;20047;-51
2022/06/24 00:31:34;;;;;;;3.05;2.83;;;;;;;;;;5094205;28;20067;-51
2022/06/24 00:34:00;;;;;;;2.47;2.28;;;;;;;;;;5094131;28;20032;-55
2022/06/24 00:36:26;;;;;;;2.65;2.45;;;;;;;;;;5094173;28;20081;-55
2022/06/24 00:38:52;;;;;;;2.40;2.20;;;;;;;;;;5094145;28;20024;-51
2022/06/24 00:41:24;;;;;;;2.63;2.42;;;25.80;64.80;;;;;;5094208;28;20024;-51
2022/06/24 00:43:55;;;;;;;3.72;2.90;;;25.60;56.30;;;;;;5094058;28;20081;-52
2022/06/24 00:46:23;;;;;;;4.03;2.65;;;25.60;88.00;;;;;;5093979;28;20020;-55
2022/06/24 00:48:55;;;;;;;3.38;2.78;;;26.00;88.70;;;;;;5093826;28;20483;-54
2022/06/24 00:51:22;;;;;;;3.00;2.67;;;25.80;88.60;;;;;;5093987;28;20387;-52
2022/06/24 00:53:55;;;;;;;2.83;2.38;;;25.50;77.00;;;;;;5093699;28;20070;-53
2022/06/24 00:56:25;;;;;;;3.15;2.88;;;25.60;88.00;;;;;;5093907;28;20024;-54
2022/06/24 00:58:52;;;;;;;3.50;2.90;;;25.30;82.10;;;;;;5093875;28;20035;-53
2022/06/24 01:01:33;;;;;;;3.03;2.65;;;26.00;88.30;;;;;;5093882;28;20017;-54
2022/06/24 01:03:59;;;;;;;3.88;2.63;;;26.10;88.50;;;;;;5093524;28;20027;-53
2022/06/24 01:06:27;;;;;;;2.67;2.42;;;25.60;88.10;;;;;;5093926;28;20028;-52
2022/06/24 01:08:53;;;;;;;4.72;2.90;;;26.10;81.80;;;;;;5093283;28;20056;-54
2022/06/24 01:11:39;;;;;;;4.32;2.78;;;25.90;88.00;;;;;;5093418;28;20028;-51
2022/06/24 01:14:06;;;;;;;3.22;2.72;;;25.40;88.50;;;;;;5093816;28;20016;-52
2022/06/24 01:16:32;;;;;;;3.00;2.70;;;25.50;56.50;;;;;;5093579;28;20020;-54
2022/06/24 01:19:00;;;;;;;3.67;2.75;;;25.50;88.30;;;;;;5093085;28;20532;-52
2022/06/24 01:21:30;;;;;;;3.33;2.58;;;25.80;85.70;;;;;;5093313;28;20024;-53
2022/06/24 01:24:11;;;;;;;3.40;2.40;;;25.70;56.50;;;;;;5093346;28;20205;-54
2022/06/24 01:26:39;;;;;;;3.63;2.65;;;26.00;88.20;;;;;;5089371;28;20048;-54
2022/06/24 01:29:05;;;;;;;2.80;2.60;;;25.70;69.40;;;;;;5093058;28;20119;-52
2022/06/24 01:31:31;;;;;;;3.55;2.08;;;;;;;;;;5093127;28;20035;-55
2022/06/24 01:33:58;;;;;;;2.80;2.50;;;25.50;87.50;;;;;;5093197;28;20032;-54
2022/06/24 01:36:24;;;;;;;2.92;2.60;;;;;;;;;;5093122;28;20024;-51
2022/06/24 01:38:50;;;;;;;2.30;2.10;;;26.20;57.20;;;;;;5092931;28;20036;-53
2022/06/24 01:41:16;;;;;;;4.18;2.47;;;25.70;56.90;;;;;;5092973;28;20513;-52
2022/06/24 01:43:42;;;;;;;4.35;2.60;;;26.00;78.20;;;;;;5093178;28;20063;-54
2022/06/24 01:46:08;;;;;;;2.63;2.38;;;26.00;87.50;;;;;;5092843;28;20437;-52
2022/06/24 01:48:34;;;;;;;4.13;2.35;;;;;;;;;;5092996;28;20036;-52
2022/06/24 01:51:00;;;;;;;4.57;2.22;;;25.60;68.70;;;;;;5092695;28;20035;-53
2022/06/24 01:53:26;;;;;;;2.88;2.45;;;;;;;;;;5092844;28;20024;-53
2022/06/24 01:55:52;;;;;;;2.75;2.40;;;;;;;;;;5092712;28;20547;-50
2022/06/24 01:58:18;;;;;;;4.15;2.55;;;;;;;;;;5092622;28;20028;-52
2022/06/24 02:00:43;;;;;;;3.05;2.08;;;25.90;88.10;;;;;;5092574;28;20028;-54
2022/06/24 02:03:09;;;;;;;2.42;2.22;;;;;;;;;;5092397;28;20047;-52
2022/06/24 02:05:35;;;;;;;2.22;2.00;;;25.30;88.10;;;;;;5092487;28;20028;-54
2022/06/24 02:08:02;;;;;;;2.33;2.05;;;25.90;75.10;;;;;;5092416;28;20087;-53
2022/06/24 02:13:28;;;;;;;2.33;2.13;;;25.90;88.80;;;;;;5092723;28;20042;-53
2022/06/24 02:15:56;;;;;;;5.38;2.30;;;25.90;79.90;;;;;;5092675;28;20027;-52
2022/06/24 02:18:22;;;;;;;4.63;2.50;;;25.70;57.20;;;;;;5092387;28;20278;-52
2022/06/24 02:20:49;;;;;;;3.13;2.20;;;26.00;83.70;;;;;;5092362;28;20124;-51
2022/06/24 02:23:15;;;;;;;3.47;2.25;;;25.80;88.90;;;;;;5092290;28;20024;-51
2022/06/24 02:25:41;;;;;;;3.35;2.30;;;25.70;89.30;;;;;;5092323;28;20028;-51
2022/06/24 02:28:07;;;;;;;2.67;2.22;;;;;;;;;;5092052;28;20487;-51
2022/06/24 02:30:33;;;;;;;2.58;1.95;;;25.70;58.30;;;;;;5092029;28;20122;-57
2022/06/24 02:32:58;;;;;;;3.05;2.20;;;25.70;76.80;;;;;;5091700;28;20024;-56
2022/06/24 02:35:24;;;;;;;2.95;2.10;;;25.30;77.20;;;;;;5092084;28;20394;-56
2022/06/24 02:37:50;;;;;;;2.45;2.10;;;;;;;;;;5092033;28;20441;-57
2022/06/24 02:43:00;;;;;;;1.98;1.75;;;25.60;88.90;;;;;;5092396;28;20043;-56
2022/06/24 02:45:26;;;;;;;3.60;1.98;;;25.60;88.60;;;;;;5092022;28;20027;-55
2022/06/24 02:47:52;;;;;;;2.20;2.00;;;;;;;;;;5092005;28;20036;-56
2022/06/24 02:50:18;;;;;;;2.25;2.00;;;;;;;;;;5092007;28;20024;-56
2022/06/24 02:52:43;;;;;;;1.70;1.60;;;26.00;88.70;;;;;;5092231;28;20032;-55
2022/06/24 02:55:09;;;;;;;2.00;1.80;;;25.70;88.90;;;;;;5091823;28;20073;-57
2022/06/24 02:57:35;;;;;;;2.83;1.95;;;25.10;88.40;;;;;;5091949;28;20035;-57
2022/06/24 03:00:00;;;;;;;2.45;1.83;;;25.70;89.00;;;;;;5092088;28;20020;-56
2022/06/24 03:02:26;;;;;;;3.65;1.77;;;25.30;88.40;;;;;;5091998;28;20024;-56
2022/06/24 03:04:52;;;;;;;2.60;2.08;;;;;;;;;;5091843;28;20501;-57
2022/06/24 03:07:18;;;;;;;2.78;2.05;;;25.50;88.40;;;;;;5091884;28;20028;-55
2022/06/24 03:09:43;;;;;;;2.03;1.83;;;;;;;;;;5091742;28;20127;-56
2022/06/24 03:12:09;;;;;;;2.20;1.63;;;25.40;88.70;;;;;;5091802;28;20032;-56
2022/06/24 03:14:35;;;;;;;3.17;1.80;;;25.50;89.20;;;;;;5091667;28;20024;-56
2022/06/24 03:17:00;;;;;;;3.67;2.20;;;25.80;89.00;;;;;;5091747;28;20056;-56
2022/06/24 03:19:26;;;;;;;3.90;1.88;;;25.70;88.70;;;;;;5091693;28;20024;-55
2022/06/24 03:21:52;;;;;;;2.45;1.83;;;;;;;;;;5091722;28;20028;-55
2022/06/24 03:24:18;;;;;;;3.45;1.60;;;;;;;;;;5091780;28;20024;-55
2022/06/24 03:26:44;;;;;;;2.63;1.83;;;25.50;77.30;;;;;;5091717;28;20440;-56
2022/06/24 03:29:09;;;;;;;2.75;1.75;;;25.30;89.30;;;;;;5091539;28;20024;-57
2022/06/24 03:31:35;;;;;;;2.13;1.58;;;25.90;89.90;;;;;;5091565;28;20059;-57
2022/06/24 03:34:00;;;;;;;2.70;1.90;;;25.70;89.80;;;;;;5091617;28;20036;-56
2022/06/24 03:36:26;;;;;;;2.05;1.70;;;25.70;89.70;;;;;;5091450;28;20020;-57
2022/06/24 03:38:52;;;;;;;3.05;1.63;;;;;;;;;;5091625;28;20032;-55
2022/06/24 03:41:18;;;;;;;3.38;1.63;;;;;;;;;;5091405;28;20028;-55
2022/06/24 03:43:44;;;;;;;2.63;1.75;;;;;;;;;;5094092;28;20028;-56
2022/06/24 03:46:10;;;;;;;2.55;1.70;;;;;;;;;;5095230;28;20172;-56
2022/06/24 03:48:36;;;;;;;1.80;1.67;;;;;;;;;;5094991;28;20074;-56
2022/06/24 03:51:02;;;;;;;3.03;1.70;;;;;;;;;;5095082;28;20024;-57
2022/06/24 03:53:31;;;;;;;2.17;1.60;;;25.90;68.00;;;;;;5095006;28;20058;-57
2022/06/24 03:55:56;;;;;;;2.13;1.52;;;25.70;81.60;;;;;;5095207;28;20024;-55
2022/06/24 03:58:22;;;;;;;1.65;1.48;;;25.80;73.30;;;;;;5095017;28;20035;-55
2022/06/24 04:00:48;;;;;;;5.32;1.90;;;;;;;;;;5094859;28;20062;-55
2022/06/24 04:03:14;;;;;;;1.70;1.60;;;;;;;;;;5094777;28;20043;-57
2022/06/24 04:05:40;;;;;;;1.98;1.80;;;;;;;;;;5094773;28;20028;-55
2022/06/24 04:08:06;;;;;;;3.00;1.70;;;;;;;;;;5094766;28;20051;-56
2022/06/24 04:10:32;;;;;;;3.03;2.05;;;;;;;;;;5094684;28;20062;-57
2022/06/24 04:12:58;;;;;;;1.73;1.42;;;;;;;;;;5094703;28;20060;-57
2022/06/24 04:15:24;;;;;;;2.13;1.92;;;;;;;;;;5094618;28;20502;-57
2022/06/24 04:17:50;;;;;;;3.63;1.92;;;;;;;;;;5094507;28;20391;-55
2022/06/24 04:20:18;;;;;;;2.17;1.90;;;26.00;58.50;;;;;;5094626;28;20035;-56
2022/06/24 04:22:44;;;;;;;2.05;1.85;;;25.20;90.10;;;;;;5094474;28;20119;-57
2022/06/24 04:25:10;;;;;;;2.47;2.00;;;25.30;86.70;;;;;;5094418;28;20439;-56
2022/06/24 04:27:37;;;;;;;1.90;1.80;;;25.80;90.40;;;;;;5094357;28;20399;-57
2022/06/24 04:30:05;;;;;;;2.50;1.83;;;25.40;57.90;;;;;;5094379;28;20059;-57
2022/06/24 04:32:31;;;;;;;3.47;1.85;;;25.60;90.30;;;;;;5094643;28;20379;-56
2022/06/24 04:34:56;;;;;;;2.47;1.73;;;25.60;90.00;;;;;;5094249;28;20028;-56
2022/06/24 04:37:22;;;;;;;6.97;1.88;;;25.20;83.50;;;;;;5094529;28;20031;-56
2022/06/24 04:39:48;;;;;;;2.55;1.70;;;;;;;;;;5094252;28;20084;-57
2022/06/24 04:42:14;;;;;;;2.75;1.77;;;;;;;;;;5094073;28;20148;-56
2022/06/24 04:44:40;;;;;;;2.50;1.58;;;;;;;;;;5094096;28;20102;-57
2022/06/24 04:47:06;;;;;;;1.70;1.60;;;;;;;;;;5094065;28;20035;-56
2022/06/24 04:49:32;;;;;;;2.90;1.83;;;;;;;;;;5093864;28;20036;-56
2022/06/24 04:51:58;;;;;;;3.08;1.80;;;25.10;88.60;;;;;;5093899;28;20028;-57
2022/06/24 04:54:24;;;;;;;2.67;2.05;;;;;;;;;;5093089;28;20127;-58
2022/06/24 04:56:50;;;;;;;1.77;1.67;;;;;;;;;;5093907;28;20028;-55
2022/06/24 04:59:16;;;;;;;2.83;1.67;;;25.90;68.70;;;;;;5093795;28;20039;-56
2022/06/24 05:01:42;;;;;;;4.38;1.88;;;;;;;;;;5093667;28;20020;-58
2022/06/24 05:04:08;;;;;;;4.28;1.70;;;;;;;;;;5093706;28;20030;-58
2022/06/24 05:06:34;;;;;;;1.90;1.58;;;;;;;;;;5093650;28;20058;-58
2022/06/24 05:09:00;;;;;;;2.83;1.50;;;;;;;;;;5075119;28;20058;-58
2022/06/24 05:11:26;;;;;;;1.30;1.20;;;25.80;72.70;;;;;;5093516;28;20024;-58
2022/06/24 05:13:52;;;;;;;1.90;1.50;;;;;;;;;;5093724;28;20035;-54
2022/06/24 05:16:18;;;;;;;2.53;1.73;;;;;;;;;;5093540;28;20024;-54
2022/06/24 05:18:44;;;;;;;1.67;1.52;;;;;;;;;;5093452;28;20028;-56
2022/06/24 05:21:10;;;;;;;1.67;1.35;;;;;;;;;;5093862;28;20035;-55
2022/06/24 05:23:36;;;;;;;4.75;1.90;;;;;;;;;;5093480;28;20111;-54
2022/06/24 05:26:02;;;;;;;4.10;1.73;;;;;;;;;;5093286;28;20077;-57
2022/06/24 05:28:27;;;;;;;3.17;1.70;;;25.30;90.20;;;;;;5093177;28;20426;-56
2022/06/24 05:30:57;;;;;;;2.47;1.42;;;25.60;90.30;;;;;;5093217;28;20020;-56
2022/06/24 05:33:23;;;;;;;3.47;1.25;;;25.70;90.80;;;;;;5093324;28;20073;-56
2022/06/24 05:35:55;;;;;;;1.98;1.50;;;25.50;57.70;;;;;;5093339;28;20016;-56
2022/06/24 05:38:22;;;;;;;2.10;1.83;;;25.50;77.00;;;;;;5093147;28;20027;-57
2022/06/24 05:40:49;;;;;;;4.68;1.10;;;25.40;58.40;;;;;;5093215;28;20024;-56
2022/06/24 05:43:15;;;;;;;2.00;1.60;;;25.60;90.60;;;;;;5093053;28;20478;-56
2022/06/24 05:45:41;;;;;;;1.77;1.55;;;25.40;90.60;;;;;;5093126;28;20478;-56
2022/06/24 05:48:07;;;;;;;2.30;1.75;;;25.40;90.60;;;;;;5092992;28;20089;-56
2022/06/24 05:50:37;;;;;;;2.40;1.67;;;25.30;90.40;;;;;;5093063;28;20024;-56
2022/06/24 05:55:47;;;;;;;3.53;1.48;;;25.40;90.40;;;;;;5093236;28;20093;-55
2022/06/24 05:58:13;;;;;;;2.60;1.73;;;25.10;90.40;;;;;;5092900;28;20028;-56
2022/06/24 06:00:38;;;;;;;1.98;1.80;;;25.60;90.70;;;;;;5093100;28;20020;-55
2022/06/24 06:03:04;;;;;;;3.55;1.60;;;25.60;89.10;;;;;;5092931;28;20058;-55
2022/06/24 06:05:30;;;;;;;1.80;1.60;;;;;;;;;;5092814;28;20058;-55
2022/06/24 06:07:56;;;;;;;2.10;1.45;;;;;;;;;;5092599;28;20473;-55
2022/06/24 06:10:22;;;;;;;1.92;1.52;;;;;;;;;;5092767;28;20028;-54
2022/06/24 06:12:48;;;;;;;3.58;1.65;;;;;;;;;;5092657;28;20084;-56
2022/06/24 06:15:14;;;;;;;1.95;1.50;;;;;;;;;;5092578;28;20028;-56
2022/06/24 06:17:40;;;;;;;3.13;1.50;;;;;;;;;;5092540;28;20028;-54
2022/06/24 06:20:06;;;;;;;4.22;1.80;;;25.10;57.70;;;;;;5092501;28;20047;-54
2022/06/24 06:22:32;;;;;;;4.20;1.73;;;25.00;59.40;;;;;;5092523;28;20031;-52
2022/06/24 06:24:58;;;;;;;2.53;1.67;;;;;;;;;;5092482;28;20028;-55
2022/06/24 06:27:24;;;;;;;2.28;1.70;;;25.00;69.40;;;;;;5092314;28;20519;-54
2022/06/24 06:29:50;;;;;;;4.38;1.83;;;;;;;;;;5092593;28;20165;-55
2022/06/24 06:32:16;;;;;;;3.10;1.58;;;;;;;;;;5092396;28;20151;-54
2022/06/24 06:34:42;;;;;;;2.80;1.67;;;;;;;;;;5092351;28;20035;-55
2022/06/24 06:37:08;;;;;;;2.40;1.70;;;;;;;;;;5092334;28;20027;-56
2022/06/24 06:39:36;;;;;;;3.13;2.03;;;25.70;87.50;;;;;;5092563;28;20379;-54
2022/06/24 06:42:02;;;;;;;1.80;1.58;;;25.50;60.50;;;;;;5092305;28;20063;-54
2022/06/24 06:44:28;;;;;;;1.67;1.40;;;25.70;73.60;;;;;;5092267;28;20029;-55
2022/06/24 06:46:54;;;;;;;3.22;1.17;;;;;;;;;;5092286;28;20123;-56
2022/06/24 06:49:20;;;;;;;2.22;1.85;;;;;;;;;;5092161;28;20508;-55
2022/06/24 06:51:46;;;;;;;1.80;1.35;;;;;;;;;;5092215;28;20035;-55
2022/06/24 06:54:12;;;;;;;1.48;1.27;;;;;;;;;;5092157;28;20024;-54
2022/06/24 06:56:38;;;;;;;1.48;1.20;;;;;;;;;;5092255;28;20074;-54
2022/06/24 06:59:04;;;;;;;2.30;1.33;;;;;;;;;;5092109;28;20036;-54
2022/06/24 07:01:30;;;;;;;3.38;1.50;;;;;;;;;;5091913;28;20164;-56
2022/06/24 07:03:57;;;;;;;3.65;1.50;;;;;;;;;;5091930;28;20032;-56
2022/06/24 07:06:24;;;;;;;4.53;1.48;;;25.50;90.20;;;;;;5092290;28;20028;-57
2022/06/24 07:08:49;;;;;;;1.40;1.27;;;25.60;90.30;;;;;;5091927;28;20460;-56
2022/06/24 07:11:15;;;;;;;3.35;1.45;;;25.70;90.40;;;;;;5092055;28;20016;-55
2022/06/24 07:13:40;;;;;;;3.03;1.08;;;25.30;90.40;;;;;;5092268;28;20034;-57
2022/06/24 07:16:10;;;;;;;3.08;1.40;;;25.70;90.30;;;;;;5091992;28;20390;-56
2022/06/24 07:18:36;;;;;;;1.75;1.55;;;25.70;90.40;;;;;;5094455;28;20032;-56
2022/06/24 07:21:01;;;;;;;2.53;1.52;;;25.50;90.40;;;;;;5096222;28;20028;-56
2022/06/24 07:23:27;;;;;;;2.20;1.20;;;25.50;90.50;;;;;;5095842;28;20431;-57
2022/06/24 07:25:56;;;;;;;4.18;1.60;;;25.50;58.30;;;;;;5096043;28;20026;-54
2022/06/24 07:28:21;;;;;;;2.28;1.50;;;25.60;90.40;;;;;;5095692;28;20659;-52
2022/06/24 07:30:47;;;;;;;2.88;1.27;;;25.70;90.40;;;;;;5095713;28;20051;-51
2022/06/24 07:33:12;;;;;;;1.48;1.10;;;25.60;90.50;;;;;;5095603;28;20026;-55
2022/06/24 07:35:38;;;;;;;3.03;1.77;;;25.30;75.60;;;;;;5095554;28;20013;-51
2022/06/24 07:38:04;;;;;;;2.08;1.48;;;;;;;;;;5095568;28;20077;-51
2022/06/24 07:40:30;;;;;;;2.00;1.40;;;;;;;;;;5095455;28;20031;-52
2022/06/24 07:42:56;;;;;;;1.70;1.58;;;;;;;;;;5095515;28;20047;-52
2022/06/24 07:45:22;;;;;;;5.50;1.20;;;;;;;;;;5095390;28;20039;-52
2022/06/24 07:47:48;;;;;;;1.70;1.27;;;;;;;;;;5095228;28;20085;-52
2022/06/24 07:50:14;;;;;;;3.60;1.20;;;;;;;;;;5095573;28;20024;-54
2022/06/24 07:52:40;;;;;;;2.35;1.33;;;;;;;;;;5077010;28;20501;-51
2022/06/24 07:57:50;;;;;;;2.03;1.40;;;25.40;90.40;;;;;;5095514;28;20167;-55
2022/06/24 08:00:17;;;;;;;1.80;1.33;;;25.50;88.40;;;;;;5095158;28;20109;-54
2022/06/24 08:02:42;;;;;;;3.42;1.40;;;25.00;90.10;;;;;;5095185;28;20057;-51
2022/06/24 08:05:08;;;;;;;1.58;1.40;;;25.70;59.90;;;;;;5094989;28;20095;-54
2022/06/24 08:07:34;;;;;;;1.38;1.27;;;;;;;;;;5094923;28;20169;-52
2022/06/24 08:10:00;;;;;;;2.95;1.75;;;25.60;59.70;;;;;;5094781;28;20044;-52
2022/06/24 08:12:26;;;;;;;2.00;1.42;;;;;;;;;;5094794;28;20024;-51
2022/06/24 08:14:52;;;;;;;2.10;1.40;;;;;;;;;;5094707;28;20411;-51
2022/06/24 08:17:18;;;;;;;2.40;1.10;;;;;;;;;;5094733;28;20048;-52
2022/06/24 08:19:44;;;;;;;2.20;1.38;;;;;;;;;;5094660;28;20031;-53
2022/06/24 08:22:10;;;;;;;1.92;1.38;;;;;;;;;;5094622;28;20112;-52
2022/06/24 08:24:36;;;;;;;1.98;1.30;;;;;;;;;;5094499;28;20060;-56
2022/06/24 08:27:02;;;;;;;1.55;1.27;;;25.30;58.30;;;;;;5094725;28;20095;-51
2022/06/24 08:29:28;;;;;;;2.35;1.60;;;;;;;;;;5093144;28;20434;-51
2022/06/24 08:31:54;;;;;;;2.30;1.67;;;;;;;;;;5094381;28;20112;-50
2022/06/24 08:34:23;;;;;;;1.52;1.20;;;;;;;;;;5094465;28;20060;-51
2022/06/24 08:36:49;;;;;;;2.63;1.50;;;25.60;71.60;;;;;;5094413;28;20421;-50
2022/06/24 08:39:15;;;;;;;3.95;1.70;;;25.10;90.40;;;;;;5094476;28;20024;-50
2022/06/24 08:41:46;;;;;;;3.95;2.03;;;25.60;90.60;;;;;;5094255;28;20032;-52
2022/06/24 08:44:12;;;;;;;3.38;1.85;;;;;;;;;;5094194;28;20037;-55
2022/06/24 08:46:41;;;;;;;4.57;2.00;;;25.50;78.70;;;;;;5094289;28;20455;-51
2022/06/24 08:49:07;;;;;;;4.85;2.25;;;;;;;;;;5093926;28;20032;-52
2022/06/24 08:51:34;;;;;;;2.00;1.70;;;25.70;90.70;;;;;;5094083;28;20107;-52
2022/06/24 08:54:02;;;;;;;4.93;2.05;;;25.50;67.50;;;;;;5094056;28;20028;-51
2022/06/24 08:56:29;;;;;;;5.85;2.40;;;25.60;59.00;;;;;;5093975;28;20523;-52
2022/06/24 08:58:55;;;;;;;3.58;1.83;;;25.50;90.50;;;;;;5093975;28;20028;-53
2022/06/24 09:01:21;;;;;;;4.00;1.98;;;25.40;90.50;;;;;;5093855;28;20433;-52
2022/06/24 09:03:48;;;;;;;2.80;1.90;;;25.70;90.60;;;;;;5093764;28;20375;-54
2022/06/24 09:06:16;;;;;;;4.25;1.90;;;25.20;86.60;;;;;;5093696;28;20676;-51
2022/06/24 09:08:50;;;;;;;4.35;2.10;;;25.70;77.00;;;;;;5093186;28;20085;-51
2022/06/24 09:11:16;;;;;;;4.78;1.80;;;25.70;90.70;;;;;;5093854;28;20077;-51
2022/06/24 09:13:50;;;;;;;3.55;2.00;;;25.60;75.80;;;;;;5093567;28;20028;-54
2022/06/24 09:16:20;;;;;;;3.95;1.88;;;25.80;90.80;;;;;;5093802;28;20559;-50
2022/06/24 09:18:54;;;;;;;3.08;2.17;;;25.70;85.20;;;;;;5093564;28;20032;-52
2022/06/24 09:21:31;;;;;;;2.33;2.13;;;23.90;57.90;;;;;;5093812;28;20024;-54
2022/06/24 09:24:00;;;;;;;5.38;2.00;;;25.50;90.40;;;;;;5093323;28;20020;-51
2022/06/24 09:26:39;;;;;;;4.10;2.17;;;25.50;65.00;;;;;;5093316;28;20032;-51
2022/06/24 09:29:09;;;;;;;2.17;1.98;;;26.00;90.70;;;;;;5093558;28;20035;-53
2022/06/24 09:31:36;;;;;;;6.60;2.05;;;25.60;90.30;;;;;;5093662;28;20020;-54
2022/06/24 09:34:20;;;;;;;3.65;2.25;;;25.60;66.00;;;;;;5093481;28;20032;-53
2022/06/24 09:36:47;;;;;;;3.72;2.00;;;26.20;63.40;;;;;;5093231;28;20020;-51
2022/06/24 09:39:15;;;;;;;3.72;2.25;;;25.70;90.10;;;;;;5093183;28;20103;-53
2022/06/24 09:41:46;;;;;;;3.00;2.10;;;26.10;90.30;;;;;;5092870;28;20410;-52
2022/06/24 09:44:12;;;;;;;3.50;2.10;;;25.90;58.00;;;;;;5093074;28;20068;-55
2022/06/24 09:46:38;;;;;;;3.97;2.10;;;26.10;85.50;;;;;;5093086;28;20470;-52
2022/06/24 09:49:07;;;;;;;5.35;1.98;;;26.20;83.70;;;;;;5092900;28;20028;-50
2022/06/24 09:51:33;;;;;;;4.57;2.70;;;26.30;90.10;;;;;;5093048;28;20024;-52
2022/06/24 09:53:59;;;;;;;2.97;2.00;;;26.20;89.80;;;;;;5092925;28;20035;-52
2022/06/24 09:56:25;;;;;;;3.75;2.42;;;25.80;89.70;;;;;;5092931;28;20024;-53
2022/06/24 10:01:38;;;;;;;3.50;2.00;;;25.90;89.50;;;;;;5061247;28;20055;-52
2022/06/24 10:04:05;;;;;;;4.82;2.20;;;25.90;89.30;;;;;;5092802;28;20529;-53
2022/06/24 10:06:37;;;;;;;3.65;2.00;;;24.10;56.00;;;;;;5092609;28;20016;-54
2022/06/24 10:09:05;;;;;;;5.25;2.28;;;26.30;63.10;;;;;;5092379;28;20050;-51
2022/06/24 10:11:37;;;;;;;2.72;2.13;;;26.00;57.40;;;;;;5092750;28;20027;-53
2022/06/24 10:14:02;;;;;;;2.30;2.10;;;26.00;89.20;;;;;;5092511;28;20062;-52
2022/06/24 10:16:28;;;;;;;3.33;2.38;;;25.90;80.30;;;;;;5092526;28;20052;-52
2022/06/24 10:18:55;;;;;;;2.42;2.10;;;26.00;57.40;;;;;;5092389;28;20012;-54
2022/06/24 10:21:21;;;;;;;4.05;2.10;;;26.30;89.70;;;;;;5092497;28;20084;-53
2022/06/24 10:23:47;;;;;;;2.20;2.00;;;25.90;89.60;;;;;;5092446;28;20074;-54
2022/06/24 10:26:14;;;;;;;10.68;3.00;;;26.20;90.00;;;;;;5092433;28;20036;-50
2022/06/24 10:29:06;;;;;;;6.07;2.60;;;26.00;66.60;;;;;;5092412;28;20028;-52
2022/06/24 10:31:56;;;;;;;5.82;2.72;;;26.00;57.30;;;;;;5053812;28;20040;-52
2022/06/24 10:34:30;;;;;;;8.15;2.78;;;26.20;90.00;;;;;;5092452;28;20031;-53
2022/06/24 10:37:02;;;;;;;3.50;2.10;;;26.20;74.20;;;;;;5092466;28;20032;-53
2022/06/24 10:39:30;;;;;;;2.90;2.60;;;26.00;90.20;;;;;;5092726;28;20030;-54
2022/06/24 10:42:06;;;;;;;8.07;3.50;;;26.20;90.00;;;;;;5092165;28;20027;-52
2022/06/24 10:44:34;;;;;;;5.25;2.83;;;25.80;78.80;;;;;;5092186;28;20024;-51
2022/06/24 10:47:08;;;;;;;4.95;3.25;;;25.90;57.30;;;;;;5092127;28;20042;-54
2022/06/24 10:52:39;;;;;;;8.02;3.80;;;26.00;57.50;;;;;;5092743;28;20028;-51
2022/06/24 10:57:44;;;;;;;7.20;3.70;;;26.20;90.20;;;;;;5096486;28;20082;-52
2022/06/24 11:00:23;;;;;;;6.13;3.42;;;26.00;90.30;;;;;;5096149;28;20051;-51
2022/06/24 11:03:03;;;;;;;6.88;3.80;;;25.80;90.20;;;;;;5096518;28;20024;-51
2022/06/24 11:05:39;;;;;;;7.00;3.47;;;26.00;90.20;;;;;;5096323;28;20090;-52
2022/06/24 11:08:12;;;;;;;5.32;3.22;;;26.00;90.30;;;;;;5095960;28;20044;-51
2022/06/24 11:10:38;;;;;;;3.95;3.13;;;;;;;;;;5096069;28;20035;-51
2022/06/24 11:13:04;;;;;;;5.90;3.33;;;26.10;59.10;;;;;;5096052;28;20024;-52
2022/06/24 11:15:34;;;;;;;9.77;3.60;;;26.00;57.70;;;;;;5095606;28;20028;-52
2022/06/24 11:18:07;;;;;;;5.15;3.10;;;26.00;57.70;;;;;;5096031;28;20030;-52
2022/06/24 11:20:40;;;;;;;5.85;3.95;;;26.10;90.40;;;;;;5095825;28;20442;-50
2022/06/24 11:23:20;;;;;;;5.82;2.97;;;26.10;58.70;;;;;;5096002;28;20039;-52
2022/06/24 11:25:51;;;;;;;4.70;3.33;;;25.70;64.50;;;;;;5095907;28;20024;-53
2022/06/24 11:28:38;;;;;;;6.63;3.10;;;26.00;90.40;;;;;;5095699;28;20126;-51
2022/06/24 11:31:17;;;;;;;5.88;3.35;;;26.00;57.90;;;;;;5095758;28;20031;-50
2022/06/24 11:33:45;;;;;;;5.32;3.30;;;26.10;90.20;;;;;;5095708;28;20028;-50
2022/06/24 11:36:10;;;;;;;5.18;3.28;;;26.30;84.40;;;;;;5095469;28;20024;-52
2022/06/24 11:38:55;;;;;;;7.57;3.25;;;25.90;65.20;;;;;;5095587;28;20107;-51
2022/06/24 11:41:33;;;;;;;3.22;2.90;;;25.70;90.00;;;;;;5095225;28;20021;-52
2022/06/24 11:43:59;;;;;;;4.32;2.78;;;;;;;;;;5094995;28;20194;-50
2022/06/24 11:46:25;;;;;;;5.88;3.03;;;26.30;90.30;;;;;;5095012;28;20055;-51
2022/06/24 11:49:07;;;;;;;4.20;2.97;;;26.40;89.30;;;;;;5095331;28;20056;-52
2022/06/24 11:51:33;;;;;;;5.10;3.30;;;26.30;90.30;;;;;;5095576;28;20024;-51
2022/06/24 11:54:01;;;;;;;3.75;2.88;;;26.00;90.20;;;;;;5095286;28;20024;-51
2022/06/24 11:56:29;;;;;;;4.97;2.85;;;26.30;90.20;;;;;;5095534;28;20028;-53
2022/06/24 11:58:56;;;;;;;4.80;2.72;;;26.20;90.20;;;;;;5095581;28;20065;-51
2022/06/24 12:01:24;;;;;;;3.75;2.67;;;26.10;59.10;;;;;;5095089;28;20032;-51
2022/06/24 12:03:53;;;;;;;2.88;2.28;;;26.30;58.10;;;;;;5094999;28;20057;-52
2022/06/24 12:06:20;;;;;;;3.88;2.90;;;26.30;58.20;;;;;;5094983;28;20027;-50
2022/06/24 12:08:47;;;;;;;3.42;2.85;;;26.30;57.80;;;;;;5094816;28;20071;-51
2022/06/24 12:11:18;;;;;;;4.10;2.80;;;26.30;90.10;;;;;;5095300;28;20073;-50
2022/06/24 12:14:06;;;;;;;5.40;3.05;;;26.30;57.90;;;;;;5094965;28;20028;-49
2022/06/24 12:17:02;;;;;;;4.47;2.72;;;26.80;66.70;;;;;;5094872;28;20028;-52
2022/06/24 12:19:31;;;;;;;3.50;2.60;;;26.30;58.80;;;;;;5094879;28;20097;-53
2022/06/24 12:22:05;;;;;;;4.97;2.88;;;26.40;90.20;;;;;;5094806;28;20055;-52
2022/06/24 12:24:31;;;;;;;3.83;2.58;;;26.40;90.00;;;;;;5094584;28;20024;-51
2022/06/24 12:26:58;;;;;;;4.63;3.05;;;26.20;90.10;;;;;;5094673;28;20043;-53
2022/06/24 12:29:31;;;;;;;5.35;2.60;;;26.50;58.40;;;;;;5094460;28;20040;-53
2022/06/24 12:31:58;;;;;;;3.53;2.75;;;26.60;90.40;;;;;;5094861;28;20024;-52
2022/06/24 12:34:35;;;;;;;3.60;2.60;;;26.50;57.60;;;;;;5094845;28;20034;-53
2022/06/24 12:37:09;;;;;;;3.78;2.67;;;26.40;90.20;;;;;;5094628;28;20024;-52
2022/06/24 12:39:39;;;;;;;3.00;2.65;;;26.70;88.30;;;;;;5094715;28;20016;-54
2022/06/24 12:42:05;;;;;;;;;;;26.50;58.30;;;;;;5094839;28;20031;-55
2022/06/24 12:44:47;;;;;;;3.63;2.47;;;26.80;90.10;;;;;;5094549;28;20282;-55
2022/06/24 12:53:00;;;;;;;3.45;2.53;;;26.10;89.50;;;;;;5094172;28;20031;-55
2022/06/24 12:55:27;;;;;;;3.30;2.40;;;26.60;57.50;;;;;;5094077;28;20058;-56
2022/06/24 12:57:53;;;;;;;2.80;2.53;;;26.80;90.20;;;;;;5094256;28;20379;-54
2022/06/24 13:00:19;;;;;;;2.92;2.55;;;26.80;90.10;;;;;;5093979;28;20028;-55
2022/06/24 13:02:52;;;;;;;3.97;2.72;;;26.90;90.30;;;;;;5094061;28;20150;-55
2022/06/24 13:05:19;;;;;;;2.97;2.60;;;;;;;;;;5094184;28;20118;-56
2022/06/24 13:07:46;;;;;;;4.93;2.78;;;26.90;90.00;;;;;;5093477;28;20020;-56
2022/06/24 13:10:12;;;;;;;2.50;2.30;;;26.70;80.20;;;;;;5093811;28;20113;-56
2022/06/24 13:12:38;;;;;;;6.30;2.40;;;26.70;57.60;;;;;;5094031;28;20047;-55
2022/06/24 13:15:06;;;;;;;3.33;2.75;;;26.40;77.80;;;;;;5093142;28;20035;-55
2022/06/24 13:17:34;;;;;;;2.95;2.65;;;27.00;72.40;;;;;;5093596;28;20027;-55
2022/06/24 13:20:00;;;;;;;5.05;2.25;;;;;;;;;;5093636;28;20016;-55
2022/06/24 13:22:26;;;;;;;6.78;2.92;;;;;;;;;;5093580;28;20032;-54
2022/06/24 13:24:52;;;;;;;4.10;2.63;;;;;;;;;;5093563;28;20035;-54
2022/06/24 13:27:19;;;;;;;4.00;2.65;;;26.60;57.20;;;;;;5093438;28;20474;-55
2022/06/24 13:29:44;;;;;;;3.53;2.55;;;26.50;87.30;;;;;;5093482;28;20043;-55
2022/06/24 13:32:10;;;;;;;5.75;2.80;;;;;;;;;;5093462;28;20024;-54
2022/06/24 13:34:36;;;;;;;3.75;2.45;;;26.80;64.90;;;;;;5093376;28;20059;-54
2022/06/24 13:37:02;;;;;;;2.75;2.40;;;;;;;;;;5093328;28;20016;-55
2022/06/24 13:39:28;;;;;;;6.82;2.78;;;;;;;;;;5093256;28;20089;-55
2022/06/24 13:41:54;;;;;;;3.83;2.30;;;;;;;;;;5093303;28;20031;-55
2022/06/24 13:44:20;;;;;;;4.25;2.30;;;26.50;59.10;;;;;;5093099;28;20039;-55
2022/06/24 13:46:46;;;;;;;3.90;2.40;;;;;;;;;;5093058;28;20021;-56
2022/06/24 13:49:12;;;;;;;4.60;2.92;;;;;;;;;;5092988;28;20043;-55